createdAt,value
2018-10-09T00:01:15.914Z,10.20
2018-10-09T00:03:51.419Z,10.10
2018-10-09T00:06:23.378Z,9.90
2018-10-09T00:09:02.293Z,9.90
2018-10-09T00:11:35.760Z,9.70
2018-10-09T00:14:10.143Z,9.80
2018-10-09T00:16:40.298Z,9.70
2018-10-09T00:19:09.618Z,9.70
2018-10-09T00:21:39.478Z,9.80
2018-10-09T00:24:08.690Z,9.80
2018-10-09T00:26:42.399Z,9.70
2018-10-09T00:29:16.387Z,9.70
2018-10-09T00:31:48.538Z,9.60
2018-10-09T00:34:17.701Z,9.50
2018-10-09T00:36:50.890Z,9.60
2018-10-09T00:39:20.006Z,9.40
2018-10-09T00:41:49.619Z,9.50
2018-10-09T00:44:18.510Z,9.50
2018-10-09T00:46:51.182Z,9.50
2018-10-09T00:49:22.738Z,9.60
2018-10-09T00:51:59.161Z,9.70
2018-10-09T00:54:28.142Z,9.70
2018-10-09T00:56:57.628Z,9.70
2018-10-09T00:59:29.959Z,9.80
2018-10-09T01:01:58.911Z,9.80
2018-10-09T01:04:28.461Z,9.70
2018-10-09T01:07:00.222Z,9.70
2018-10-09T01:09:35.353Z,9.70
2018-10-09T01:12:11.029Z,9.60
2018-10-09T01:14:40.117Z,9.50
2018-10-09T01:17:09.702Z,9.30
2018-10-09T01:19:39.324Z,9.30
2018-10-09T01:22:08.379Z,9.30
2018-10-09T01:24:43.558Z,9.30
2018-10-09T01:27:17.716Z,9.30
2018-10-09T01:29:49.405Z,9.20
2018-10-09T01:32:18.308Z,9.10
2018-10-09T01:34:47.292Z,9.10
2018-10-09T01:37:21.175Z,8.90
2018-10-09T01:39:50.194Z,8.90
2018-10-09T01:42:19.806Z,8.90
2018-10-09T01:44:49.821Z,8.80
2018-10-09T01:47:20.916Z,8.70
2018-10-09T01:49:54.796Z,8.70
2018-10-09T01:52:24.006Z,8.80
2018-10-09T01:54:58.502Z,8.70
2018-10-09T01:57:28.361Z,8.70
2018-10-09T01:59:59.860Z,8.70
2018-10-09T02:02:29.151Z,8.60
2018-10-09T02:05:00.441Z,8.60
2018-10-09T02:07:39.535Z,8.60
2018-10-09T02:10:09.422Z,8.60
2018-10-09T02:12:39.781Z,8.40
2018-10-09T02:15:16.694Z,8.30
2018-10-09T02:17:45.956Z,8.30
2018-10-09T02:20:15.206Z,8.20
2018-10-09T02:22:46.566Z,8.10
2018-10-09T02:25:19.511Z,8.10
2018-10-09T02:27:53.775Z,8.10
2018-10-09T02:30:27.738Z,8.10
2018-10-09T02:32:57.881Z,8.20
2018-10-09T02:35:27.149Z,8.10
2018-10-09T02:37:56.273Z,8.20
2018-10-09T02:40:26.046Z,8.10
2018-10-09T02:42:57.715Z,8.10
2018-10-09T02:45:27.654Z,8.10
2018-10-09T02:47:56.760Z,8.10
2018-10-09T02:50:26.249Z,8.10
2018-10-09T02:52:55.510Z,8.00
2018-10-09T02:55:27.318Z,7.80
2018-10-09T02:57:58.284Z,7.80
2018-10-09T03:00:27.130Z,7.80
2018-10-09T03:02:56.558Z,7.80
2018-10-09T03:05:25.458Z,7.70
2018-10-09T03:08:02.839Z,7.60
2018-10-09T03:10:34.818Z,7.50
2018-10-09T03:13:03.722Z,7.50
2018-10-09T03:15:32.721Z,7.50
2018-10-09T03:18:01.847Z,7.50
2018-10-09T03:20:30.822Z,7.50
2018-10-09T03:23:03.500Z,7.40
2018-10-09T03:25:35.678Z,7.50
2018-10-09T03:28:04.832Z,7.50
2018-10-09T03:30:33.831Z,7.40
2018-10-09T03:33:02.790Z,7.50
2018-10-09T03:35:32.458Z,7.50
2018-10-09T03:38:05.036Z,7.50
2018-10-09T03:40:35.809Z,7.50
2018-10-09T03:43:11.310Z,7.50
2018-10-09T03:45:40.609Z,7.60
2018-10-09T03:48:10.049Z,7.60
2018-10-09T03:50:40.195Z,7.60
2018-10-09T03:53:09.699Z,7.50
2018-10-09T03:55:42.163Z,7.50
2018-10-09T03:58:11.359Z,7.40
2018-10-09T04:00:40.303Z,7.20
2018-10-09T04:03:09.618Z,7.20
2018-10-09T04:05:38.708Z,7.10
2018-10-09T04:08:11.220Z,7.10
2018-10-09T04:10:43.042Z,7.20
2018-10-09T04:13:12.415Z,7.10
2018-10-09T04:15:41.783Z,7.00
2018-10-09T04:18:12.866Z,7.00
2018-10-09T04:20:41.892Z,7.00
2018-10-09T04:23:15.689Z,6.90
2018-10-09T04:25:47.897Z,6.90
2018-10-09T04:28:19.466Z,6.90
2018-10-09T04:30:48.955Z,6.90
2018-10-09T04:33:17.926Z,6.80
2018-10-09T04:35:47.128Z,6.70
2018-10-09T04:38:16.302Z,6.80
2018-10-09T04:40:45.681Z,6.80
2018-10-09T04:43:14.609Z,6.80
2018-10-09T04:45:45.980Z,6.80
2018-10-09T04:48:18.790Z,6.70
2018-10-09T04:51:05.250Z,6.70
2018-10-09T04:53:34.419Z,6.70
2018-10-09T04:56:03.650Z,6.60
2018-10-09T04:58:32.951Z,6.60
2018-10-09T05:01:03.682Z,6.70
2018-10-09T05:03:32.690Z,6.60
2018-10-09T05:06:01.776Z,6.60
2018-10-09T05:08:30.988Z,6.50
2018-10-09T05:10:59.925Z,6.60
2018-10-09T05:13:32.388Z,6.50
2018-10-09T05:16:04.622Z,6.50
2018-10-09T05:18:38.382Z,6.60
2018-10-09T05:21:07.834Z,6.50
2018-10-09T05:23:38.296Z,6.50
2018-10-09T05:26:07.956Z,6.50
2018-10-09T05:28:36.955Z,6.50
2018-10-09T05:31:05.949Z,6.50
2018-10-09T05:33:35.038Z,6.50
2018-10-09T05:36:04.305Z,6.40
2018-10-09T05:38:35.435Z,6.40
2018-10-09T05:41:05.969Z,6.40
2018-10-09T05:43:35.954Z,6.30
2018-10-09T05:46:10.695Z,6.30
2018-10-09T05:48:40.780Z,6.30
2018-10-09T05:51:16.019Z,6.30
2018-10-09T05:53:46.146Z,6.30
2018-10-09T05:56:15.351Z,6.20
2018-10-09T05:58:44.884Z,6.20
2018-10-09T06:01:18.101Z,6.20
2018-10-09T06:03:47.956Z,6.20
2018-10-09T06:06:16.797Z,6.10
2018-10-09T06:08:45.625Z,6.10
2018-10-09T06:11:15.003Z,6.10
2018-10-09T06:13:44.971Z,6.10
2018-10-09T06:16:17.675Z,6.10
2018-10-09T06:18:47.719Z,6.10
2018-10-09T06:21:16.806Z,6.10
2018-10-09T06:23:46.116Z,6.20
2018-10-09T06:26:15.946Z,6.10
2018-10-09T06:28:45.369Z,6.20
2018-10-09T06:31:17.267Z,6.20
2018-10-09T06:33:50.586Z,6.20
2018-10-09T06:36:21.378Z,6.20
2018-10-09T06:38:57.596Z,6.20
2018-10-09T06:41:27.268Z,6.30
2018-10-09T06:44:00.227Z,6.40
2018-10-09T06:46:29.893Z,6.60
2018-10-09T06:48:59.076Z,6.70
2018-10-09T06:51:33.671Z,6.70
2018-10-09T06:54:05.883Z,6.90
2018-10-09T06:56:35.199Z,7.00
2018-10-09T06:59:07.037Z,7.30
2018-10-09T07:01:46.232Z,7.80
2018-10-09T07:04:18.751Z,8.00
2018-10-09T07:06:50.024Z,8.20
2018-10-09T07:09:22.816Z,8.40
2018-10-09T07:11:51.973Z,8.60
2018-10-09T07:14:21.589Z,8.80
2018-10-09T07:16:54.542Z,8.80
2018-10-09T07:19:26.409Z,9.00
2018-10-09T07:21:59.408Z,9.10
2018-10-09T07:24:31.354Z,9.20
2018-10-09T07:27:00.556Z,9.30
2018-10-09T07:29:37.789Z,9.40
2018-10-09T07:32:07.015Z,9.40
2018-10-09T07:34:38.457Z,9.50
2018-10-09T07:37:07.798Z,9.50
2018-10-09T07:39:38.361Z,9.60
2018-10-09T07:42:07.417Z,9.70
2018-10-09T07:44:40.631Z,9.70
2018-10-09T07:47:10.299Z,9.80
2018-10-09T07:49:39.452Z,9.90
2018-10-09T07:52:12.407Z,10.00
2018-10-09T07:54:41.910Z,10.10
2018-10-09T07:57:15.220Z,10.20
2018-10-09T07:59:45.431Z,10.20
2018-10-09T08:02:14.929Z,10.30
2018-10-09T08:04:44.266Z,10.40
2018-10-09T08:07:17.347Z,10.50
2018-10-09T08:09:48.757Z,10.60
2018-10-09T08:12:18.136Z,10.80
2018-10-09T08:14:49.093Z,10.80
2018-10-09T08:17:18.681Z,11.00
2018-10-09T08:19:48.044Z,11.10
2018-10-09T08:22:18.439Z,11.30
2018-10-09T08:25:12.650Z,11.30
2018-10-09T08:27:44.191Z,11.40
2018-10-09T08:30:14.076Z,11.50
2018-10-09T08:32:44.263Z,11.40
2018-10-09T08:35:13.548Z,11.40
2018-10-09T08:37:42.765Z,11.50
2018-10-09T08:40:13.740Z,11.50
2018-10-09T08:42:44.726Z,11.60
2018-10-09T08:45:14.718Z,11.70
2018-10-09T08:47:47.659Z,11.70
2018-10-09T08:50:17.349Z,11.90
2018-10-09T08:52:53.949Z,12.10
2018-10-09T08:55:23.090Z,12.20
2018-10-09T08:57:52.423Z,12.20
2018-10-09T09:00:24.976Z,12.20
2018-10-09T09:02:59.436Z,12.40
2018-10-09T09:05:31.171Z,12.50
2018-10-09T09:08:00.516Z,12.60
2018-10-09T09:10:29.811Z,12.70
2018-10-09T09:13:00.683Z,12.80
2018-10-09T09:15:30.300Z,12.80
2018-10-09T09:18:00.682Z,13.00
2018-10-09T09:20:37.087Z,13.00
2018-10-09T09:23:07.229Z,13.20
2018-10-09T09:25:36.996Z,13.40
2018-10-09T09:28:06.029Z,13.50
2018-10-09T09:30:35.377Z,13.60
2018-10-09T09:33:05.521Z,13.60
2018-10-09T09:35:42.891Z,13.60
2018-10-09T09:38:16.032Z,13.70
2018-10-09T09:40:45.836Z,13.90
2018-10-09T09:43:15.077Z,13.90
2018-10-09T09:45:44.332Z,13.90
2018-10-09T09:48:13.195Z,13.90
2018-10-09T09:50:42.177Z,14.00
2018-10-09T09:53:16.108Z,14.00
2018-10-09T09:55:45.912Z,14.10
2018-10-09T09:58:17.793Z,14.20
2018-10-09T10:01:54.490Z,14.20
2018-10-09T10:04:26.993Z,14.20
2018-10-09T10:06:55.992Z,14.30
2018-10-09T10:09:25.319Z,14.40
2018-10-09T10:11:58.550Z,14.50
2018-10-09T10:14:28.156Z,14.60
2018-10-09T10:16:59.687Z,14.50
2018-10-09T10:19:28.654Z,14.60
2018-10-09T10:21:57.580Z,14.70
2018-10-09T10:24:27.912Z,14.70
2018-10-09T10:26:57.010Z,14.90
2018-10-09T10:29:26.333Z,14.90
2018-10-09T10:32:02.246Z,15.10
2018-10-09T10:34:39.112Z,15.20
2018-10-09T10:37:08.481Z,15.10
2018-10-09T10:39:37.513Z,15.30
2018-10-09T10:42:08.871Z,15.30
2018-10-09T10:44:41.849Z,15.30
2018-10-09T10:47:11.265Z,15.30
2018-10-09T10:49:43.886Z,15.30
2018-10-09T10:52:13.044Z,15.50
2018-10-09T10:54:42.042Z,15.50
2018-10-09T10:57:12.799Z,15.60
2018-10-09T10:59:42.584Z,15.70
2018-10-09T11:02:15.817Z,15.70
2018-10-09T11:04:47.021Z,15.80
2018-10-09T11:07:16.357Z,15.90
2018-10-09T11:09:45.775Z,15.90
2018-10-09T11:12:16.960Z,16.10
2018-10-09T11:14:47.894Z,16.90
2018-10-09T11:17:17.251Z,18.00
2018-10-09T11:19:46.344Z,18.30
2018-10-09T11:22:15.308Z,18.10
2018-10-09T11:24:55.506Z,17.60
2018-10-09T11:27:25.159Z,17.40
2018-10-09T11:29:54.428Z,17.30
2018-10-09T11:32:27.809Z,17.20
2018-10-09T11:34:56.854Z,17.00
2018-10-09T11:37:33.610Z,17.20
2018-10-09T11:40:02.721Z,17.30
2018-10-09T11:42:32.289Z,17.10
2018-10-09T11:45:01.596Z,17.10
2018-10-09T11:47:30.828Z,17.20
2018-10-09T11:50:02.296Z,17.20
2018-10-09T11:52:39.240Z,17.20
2018-10-09T11:55:08.815Z,17.30
2018-10-09T11:57:38.101Z,17.40
2018-10-09T12:00:08.169Z,17.30
2018-10-09T12:02:37.867Z,17.30
2018-10-09T12:05:07.562Z,17.40
2018-10-09T12:07:38.466Z,17.60
2018-10-09T12:10:08.756Z,17.70
2018-10-09T12:12:38.168Z,17.60
2018-10-09T12:15:07.404Z,17.60
2018-10-09T12:17:36.861Z,17.70
2018-10-09T12:20:06.111Z,17.60
2018-10-09T12:22:36.185Z,17.60
2018-10-09T12:25:13.393Z,17.60
2018-10-09T12:27:45.051Z,17.60
2018-10-09T12:30:21.688Z,17.70
2018-10-09T12:32:58.727Z,17.80
2018-10-09T12:35:29.347Z,17.70
2018-10-09T12:37:59.255Z,17.70
2018-10-09T12:40:30.462Z,17.80
2018-10-09T12:42:59.620Z,17.80
2018-10-09T12:45:29.159Z,17.70
2018-10-09T12:47:58.698Z,17.60
2018-10-09T12:50:30.604Z,17.70
2018-10-09T12:53:00.218Z,17.70
2018-10-09T12:55:29.486Z,17.70
2018-10-09T12:58:00.346Z,17.90
2018-10-09T13:00:31.457Z,18.00
2018-10-09T13:03:04.256Z,17.90
2018-10-09T13:05:37.285Z,18.00
2018-10-09T13:08:09.587Z,18.10
2018-10-09T13:10:39.409Z,18.10
2018-10-09T13:13:08.653Z,18.20
2018-10-09T13:15:38.918Z,18.10
2018-10-09T13:18:08.122Z,18.10
2018-10-09T13:20:44.530Z,18.00
2018-10-09T13:23:17.004Z,18.20
2018-10-09T13:26:02.525Z,18.30
2018-10-09T13:28:34.012Z,18.20
2018-10-09T13:31:03.337Z,18.20
2018-10-09T13:33:32.325Z,18.10
2018-10-09T13:36:01.516Z,18.30
2018-10-09T13:38:30.681Z,18.30
2018-10-09T13:41:00.608Z,18.30
2018-10-09T13:43:29.660Z,18.30
2018-10-09T13:45:58.621Z,18.30
2018-10-09T13:48:28.299Z,18.20
2018-10-09T13:50:57.634Z,18.30
2018-10-09T13:53:27.902Z,18.10
2018-10-09T13:55:57.037Z,18.00
2018-10-09T13:58:26.121Z,18.50
2018-10-09T14:00:55.426Z,18.50
2018-10-09T14:03:24.595Z,18.40
2018-10-09T14:05:54.977Z,18.60
2018-10-09T14:08:24.573Z,18.60
2018-10-09T14:10:54.949Z,18.70
2018-10-09T14:13:24.354Z,18.70
2018-10-09T14:15:54.112Z,18.60
2018-10-09T14:18:23.699Z,18.60
2018-10-09T14:21:04.558Z,18.50
2018-10-09T14:23:34.180Z,18.70
2018-10-09T14:26:05.493Z,18.50
2018-10-09T14:28:34.849Z,18.70
2018-10-09T14:31:03.963Z,18.70
2018-10-09T14:33:33.505Z,18.80
2018-10-09T14:36:05.112Z,18.70
2018-10-09T14:38:35.288Z,18.90
2018-10-09T14:41:04.338Z,18.90
2018-10-09T14:43:39.257Z,18.70
2018-10-09T14:46:10.127Z,18.70
2018-10-09T14:48:39.535Z,18.80
2018-10-09T14:51:08.750Z,18.80
2018-10-09T14:53:41.109Z,18.90
2018-10-09T14:56:10.240Z,18.80
2018-10-09T14:58:44.460Z,18.80
2018-10-09T15:01:13.721Z,18.70
2018-10-09T15:03:44.819Z,18.50
2018-10-09T15:06:13.873Z,18.60
2018-10-09T15:08:43.160Z,18.30
2018-10-09T15:11:12.749Z,18.10
2018-10-09T15:13:41.982Z,18.40
2018-10-09T15:16:11.256Z,18.50
2018-10-09T15:18:41.114Z,18.60
2018-10-09T15:21:10.408Z,18.60
2018-10-09T15:23:43.885Z,18.60
2018-10-09T15:26:13.821Z,18.40
2018-10-09T15:28:44.837Z,18.40
2018-10-09T15:31:14.304Z,18.30
2018-10-09T15:33:43.699Z,18.40
2018-10-09T15:36:12.903Z,18.40
2018-10-09T15:38:42.792Z,18.40
2018-10-09T15:41:11.769Z,18.20
2018-10-09T15:43:44.576Z,18.00
2018-10-09T15:46:13.705Z,17.70
2018-10-09T15:48:43.719Z,17.70
2018-10-09T15:51:14.966Z,17.80
2018-10-09T15:53:47.161Z,17.60
2018-10-09T15:56:20.549Z,17.50
2018-10-09T15:58:49.777Z,17.90
2018-10-09T16:01:18.665Z,18.00
2018-10-09T16:03:54.973Z,17.90
2018-10-09T16:06:27.499Z,17.70
2018-10-09T16:08:59.848Z,17.60
2018-10-09T16:11:33.734Z,17.60
2018-10-09T16:14:06.839Z,17.30
2018-10-09T16:16:35.861Z,17.40
2018-10-09T16:19:09.417Z,17.40
2018-10-09T16:21:39.161Z,17.10
2018-10-09T16:24:08.077Z,17.00
2018-10-09T16:26:36.832Z,16.90
2018-10-09T16:29:06.201Z,16.60
2018-10-09T16:31:35.353Z,16.50
2018-10-09T16:34:04.580Z,16.20
2018-10-09T16:36:35.707Z,16.20
2018-10-09T16:39:07.580Z,16.00
2018-10-09T16:41:36.335Z,15.90
2018-10-09T16:44:05.760Z,15.80
2018-10-09T16:46:40.696Z,15.70
2018-10-09T16:49:12.884Z,15.70
2018-10-09T16:51:42.912Z,15.50
2018-10-09T16:54:16.159Z,15.40
2018-10-09T16:56:45.021Z,15.30
2018-10-09T16:59:14.167Z,15.20
2018-10-09T17:01:49.024Z,15.10
2018-10-09T17:04:18.382Z,15.10
2018-10-09T17:06:50.257Z,15.00
2018-10-09T17:09:19.017Z,14.90
2018-10-09T17:11:47.992Z,14.90
2018-10-09T17:14:22.264Z,14.80
2018-10-09T17:16:51.421Z,14.80
2018-10-09T17:19:25.071Z,14.70
2018-10-09T17:22:05.002Z,14.60
2018-10-09T17:24:33.935Z,14.50
2018-10-09T17:27:06.207Z,14.40
2018-10-09T17:29:36.990Z,14.30
2018-10-09T17:32:11.585Z,14.10
2018-10-09T17:34:42.806Z,14.10
2018-10-09T17:37:11.852Z,14.10
2018-10-09T17:39:41.022Z,14.00
2018-10-09T17:42:11.614Z,13.90
2018-10-09T17:44:41.981Z,13.70
2018-10-09T17:47:14.361Z,13.70
2018-10-09T17:49:44.947Z,13.60
2018-10-09T17:52:14.039Z,13.60
2018-10-09T17:54:43.386Z,13.60
2018-10-09T17:57:12.587Z,13.60
2018-10-09T17:59:44.960Z,13.60
2018-10-09T18:02:13.932Z,13.50
2018-10-09T18:04:46.464Z,13.50
2018-10-09T18:07:16.012Z,13.50
2018-10-09T18:09:45.247Z,13.40
2018-10-09T18:12:14.921Z,13.40
2018-10-09T18:14:46.845Z,13.30
2018-10-09T18:17:17.378Z,13.30
2018-10-09T18:19:50.248Z,13.30
2018-10-09T18:22:24.943Z,13.20
2018-10-09T18:25:00.669Z,13.10
2018-10-09T18:27:31.966Z,13.10
2018-10-09T18:30:01.274Z,13.10
2018-10-09T18:32:31.414Z,13.00
2018-10-09T18:35:00.470Z,13.00
2018-10-09T18:37:32.187Z,13.00
2018-10-09T18:40:02.795Z,12.90
2018-10-09T18:42:31.584Z,12.80
2018-10-09T18:45:04.105Z,12.70
2018-10-09T18:47:39.197Z,12.70
2018-10-09T18:50:08.106Z,12.70
2018-10-09T18:52:39.809Z,12.60
2018-10-09T18:55:10.749Z,12.60
2018-10-09T18:57:40.524Z,12.50
2018-10-09T19:00:11.462Z,12.50
2018-10-09T19:02:41.042Z,12.40
2018-10-09T19:05:11.439Z,12.40
2018-10-09T19:07:41.694Z,12.40
2018-10-09T19:10:10.785Z,12.30
2018-10-09T19:12:39.776Z,12.30
2018-10-09T19:15:13.362Z,12.30
2018-10-09T19:17:52.874Z,12.20
2018-10-09T19:20:27.016Z,12.20
2018-10-09T19:22:58.104Z,12.20
2018-10-09T19:25:28.683Z,12.10
2018-10-09T19:28:00.946Z,12.10
2018-10-09T19:30:30.136Z,12.10
2018-10-09T19:33:02.722Z,12.10
2018-10-09T19:35:33.699Z,12.00
2018-10-09T19:38:08.644Z,11.80
2018-10-09T19:40:43.387Z,11.80
2018-10-09T19:43:19.757Z,11.70
2018-10-09T19:45:53.547Z,11.70
2018-10-09T19:48:30.346Z,11.70
2018-10-09T19:50:59.883Z,11.50
2018-10-09T19:53:38.088Z,11.60
2018-10-09T19:56:12.468Z,11.60
2018-10-09T19:58:45.741Z,11.50
2018-10-09T20:01:18.034Z,11.40
2018-10-09T20:03:49.842Z,11.40
2018-10-09T20:06:22.084Z,11.40
2018-10-09T20:08:53.084Z,11.30
2018-10-09T20:11:26.416Z,11.20
2018-10-09T20:13:56.746Z,11.20
2018-10-09T20:16:27.089Z,11.10
2018-10-09T20:19:02.218Z,11.10
2018-10-09T20:21:34.349Z,11.00
2018-10-09T20:24:03.491Z,11.00
2018-10-09T20:26:40.916Z,10.90
2018-10-09T20:29:15.282Z,10.80
2018-10-09T20:31:45.671Z,10.80
2018-10-09T20:34:19.601Z,10.70
2018-10-09T20:36:48.635Z,10.70
2018-10-09T20:39:21.945Z,10.80
2018-10-09T20:41:54.771Z,10.90
2018-10-09T20:44:23.970Z,10.80
2018-10-09T20:46:53.095Z,10.70
2018-10-09T20:51:57.941Z,10.50
2018-10-09T20:54:33.041Z,10.50
2018-10-09T20:57:11.261Z,10.40
2018-10-09T20:59:47.106Z,10.40
2018-10-09T21:02:16.323Z,10.40
2018-10-09T21:04:47.296Z,10.40
2018-10-09T21:07:16.270Z,10.40
2018-10-09T21:09:45.213Z,10.20
2018-10-09T21:12:21.437Z,10.20
2018-10-09T21:14:56.757Z,10.10
2018-10-09T21:17:31.972Z,10.10
2018-10-09T21:20:04.792Z,10.00
2018-10-09T21:22:40.714Z,10.00
2018-10-09T21:25:09.676Z,10.00
2018-10-09T21:27:40.623Z,10.10
2018-10-09T21:30:10.043Z,10.10
2018-10-09T21:32:47.110Z,9.90
2018-10-09T21:35:23.336Z,9.90
2018-10-09T21:37:52.266Z,9.80
2018-10-09T21:40:25.471Z,9.80
2018-10-09T21:42:57.314Z,9.80
2018-10-09T21:45:27.331Z,9.70
2018-10-09T21:48:02.761Z,9.70
2018-10-09T21:50:41.158Z,9.60
2018-10-09T21:53:13.864Z,9.60
2018-10-09T21:55:46.441Z,9.60
2018-10-09T21:58:15.313Z,9.50
2018-10-09T22:00:51.547Z,9.50
2018-10-09T22:03:20.696Z,9.60
2018-10-09T22:05:52.376Z,9.40
2018-10-09T22:08:21.528Z,9.40
2018-10-09T22:10:51.095Z,9.30
2018-10-09T22:13:25.234Z,9.40
2018-10-09T22:15:58.031Z,9.30
2018-10-09T22:18:27.289Z,9.40
2018-10-09T22:21:02.004Z,9.20
2018-10-09T22:23:31.430Z,9.20
2018-10-09T22:26:01.165Z,9.20
2018-10-09T22:28:33.081Z,9.20
2018-10-09T22:31:05.761Z,9.20
2018-10-09T22:33:35.829Z,9.10
2018-10-09T22:36:08.340Z,9.10
2018-10-09T22:38:45.741Z,9.20
2018-10-09T22:41:24.794Z,9.10
2018-10-09T22:43:55.270Z,9.10
2018-10-09T22:46:33.383Z,9.20
2018-10-09T22:49:02.596Z,9.00
2018-10-09T22:51:32.005Z,9.00
2018-10-09T22:54:01.709Z,8.90
2018-10-09T22:56:31.225Z,8.80
2018-10-09T22:59:03.838Z,8.80
2018-10-09T23:01:33.740Z,8.80
2018-10-09T23:04:08.735Z,8.80
2018-10-09T23:06:46.789Z,8.80
2018-10-09T23:09:18.956Z,8.80
2018-10-09T23:11:51.052Z,8.70
2018-10-09T23:14:26.365Z,8.70
2018-10-09T23:16:55.864Z,8.60
2018-10-09T23:19:28.598Z,8.60
2018-10-09T23:21:58.014Z,8.60
2018-10-09T23:24:27.537Z,8.50
2018-10-09T23:27:00.830Z,8.50
2018-10-09T23:29:33.456Z,8.50
2018-10-09T23:32:04.240Z,8.40
2018-10-09T23:34:39.751Z,8.50
2018-10-09T23:37:09.515Z,8.40
2018-10-09T23:39:41.978Z,8.30
2018-10-09T23:42:26.604Z,8.40
2018-10-09T23:44:58.106Z,8.30
2018-10-09T23:47:27.589Z,8.30
2018-10-09T23:49:56.608Z,8.30
2018-10-09T23:52:29.261Z,8.20
2018-10-09T23:54:59.391Z,8.30
2018-10-09T23:57:31.091Z,8.20
